Mondy, Russia
Current Conditions -  °F | °C
As of 1:00 AM on Sunday 26 Oct 2014 (Local Time) from UIII Reporting Station
Clear Clear  
Wind Chill:   Ceiling: Unl
Heat Index: 16°   Visibility: 6mi
Dew Point:   Wind: 4mph
Humidity: 68%   Direction: 100°E
Pressure: 30.24"   Gusts: NA
Location:  51.68°N, 100.98°E
Report Text: UIII 251700Z 10002MPS CAVOK M09/M14 Q1024 NOSIG RMK QFE723/096430920260
Loading
Personal Weather Stations






























Interactive Weather Map
Tropical Storm Tracking
New forecast layout! Learn more

10-Day Weather Forecast

Advertisements
Track Severe Weather on mobile